• Join FlightAware (Why Join?)
  • Login
  • US Flag 
09:55PM EDT


 

Airport Tracker/Info


-or-


 

Live Flight TrackerFlight Track Log ✈ LXJ342 ✈ 26-Jun-2013 ✈ KUGN - KRNO

Flight Track Log - Related Links

Times and Time Zones

All times are in EDT time to prevent confusion due to time zone crossing. See the LXJ342 flight status page for this flight to view local times or setup timezone preferences in your user account.

Time Position Orientation Groundspeed Altitude Reporting Facility
EDT Latitude Longitude Course Direction KTS MPH feet Rate Location/Type
07:39PM 42.4092 -87.7892 249° West 244 281 38,000  Level Chicago Center
07:40PM 42.3686 -87.8350 220° Southwest 211 243 4,500 -15,060 Descending Chicago Center
07:41PM 42.3144 -87.9053 224° Southwest 235 270 6,900 2,520 Climbing Chicago Center
07:42PM 42.2633 -87.9656 221° Southwest 243 280 9,800 2,400 Climbing Chicago Center
07:43PM 42.2028 -88.0389 222° Southwest 290 334 11,900 1,980 Climbing Chicago Center
07:44PM 42.1792 -88.7311 249° West  Level FlightAware Approximate
07:44PM 42.1394 -88.1325 228° Southwest 343 395 13,900  Level Chicago Center
07:45PM 42.1231 -88.2856 262° West 352 405 16,300 2,340 Climbing Chicago Center
07:46PM 42.1122 -88.4100 263° West 345 397 18,800 2,220 Climbing Chicago Center
07:47PM 42.1011 -88.5347 263° West 340 391 20,900 1,740 Climbing Chicago Center
07:48PM 42.0897 -88.6656 263° West 350 403 22,400 1,440 Climbing Chicago Center
07:49PM 42.0758 -88.8042 262° West 370 426 23,900 1,500 Climbing Chicago Center
07:50PM 42.0597 -88.9714 263° West 379 436 25,600 1,500 Climbing Chicago Center
07:51PM 42.0572 -89.1136 269° West 381 438 27,100 1,440 Climbing Chicago Center
07:52PM 42.0528 -89.2583 268° West 391 450 28,600 1,380 Climbing Chicago Center
07:53PM 42.0492 -89.4011 268° West 388 447 30,000 1,320 Climbing Chicago Center
07:54PM 42.0597 -89.5711 275° West 386 444 31,400 960 Climbing Chicago Center
07:55PM 42.0678 -89.7197 274° West 402 463 32,000 240 Climbing Chicago Center
07:56PM 42.0750 -89.8686 274° West 417 480 32,000  Level Chicago Center
07:57PM 42.0819 -90.0211 274° West 423 487 32,000  Level Chicago Center
07:58PM 42.0894 -90.2106 273° West 427 491 32,000  Level Chicago Center
07:59PM 42.0964 -90.3692 273° West 428 493 32,000  Level Chicago Center
08:00PM 42.1028 -90.5297 273° West 432 497 32,000  Level Chicago Center
08:01PM 42.1089 -90.6892 273° West 430 495 32,000  Level Chicago Center
08:02PM 42.1147 -90.8428 273° West 415 478 32,000  Level Chicago Center
08:03PM 42.1217 -91.0225 273° West 405 466 32,000  Level Chicago Center
08:04PM 42.1258 -91.1756 272° West 409 471 32,000  Level Chicago Center
08:06PM 42.1317 -91.3269 273° West 408 470 32,000  Level Chicago Center
08:07PM 42.1369 -91.4819 273° West 413 475 32,000  Level Chicago Center
08:08PM 42.1419 -91.6422 272° West 425 489 32,000  Level Chicago Center
08:09PM 42.1478 -91.8350 272° West 429 494 32,000  Level Chicago Center
08:10PM 42.1531 -91.9939 273° West 428 493 32,000  Level Chicago Center
08:11PM 42.1575 -92.1561 272° West 433 498 32,000  Level Chicago Center
08:12PM 42.1614 -92.3144 272° West 428 493 32,000 180 Level Chicago Center
08:13PM 42.1647 -92.4747 272° West 429 494 32,400 720 Climbing Chicago Center
08:14PM 42.1686 -92.6603 272° West 417 480 33,600 960 Climbing Chicago Center
08:14PM 42.1708 -92.7236 273° West 419 482 34,000 960 Climbing Minneapolis Center
08:15PM 42.1736 -92.9064 271° West 413 475 35,200 900 Climbing Minneapolis Center
08:16PM 42.1775 -93.0567 272° West 408 470 35,900 300 Climbing Minneapolis Center
08:18PM 42.1792 -93.2083 271° West 407 468 36,000  Climbing Minneapolis Center
08:19PM 42.1800 -93.3647 270° West 417 480 36,000  Level Minneapolis Center
08:20PM 42.1867 -93.5875 272° West 427 491 36,000  Level Minneapolis Center
08:21PM 42.1881 -93.7444 271° West 426 490 36,000  Level Minneapolis Center
08:22PM 42.1908 -93.9144 271° West 421 484 36,000  Level Minneapolis Center
08:23PM 42.1917 -94.0728 270° West 423 487 36,000  Level Minneapolis Center
08:24PM 42.1936 -94.2322 271° West 425 489 36,000  Level Minneapolis Center
08:25PM 42.1942 -94.3883 270° West 418 481 36,000  Level Minneapolis Center
08:26PM 42.1947 -94.5458 270° West 420 483 36,000  Level Minneapolis Center
08:27PM 42.1969 -94.7028 271° West 419 482 36,000  Level Minneapolis Center
08:28PM 42.1967 -94.9211 270° West 417 480 36,000  Level Minneapolis Center
08:29PM 42.1964 -95.0733 270° West 411 473 36,000  Level Minneapolis Center
08:30PM 42.1967 -95.2297 270° West 417 480 36,000  Level Minneapolis Center
08:31PM 42.1958 -95.3864 270° West 419 482 36,000  Level Minneapolis Center
08:32PM 42.1961 -95.5422 270° West 416 479 36,000  Level Minneapolis Center
08:33PM 42.1950 -95.7261 270° West 410 472 36,000  Level Minneapolis Center
08:34PM 42.1942 -95.8800 270° West 412 474 36,000  Level Minneapolis Center
08:35PM 42.1933 -96.0058 270° West 415 478 36,000  Level Minneapolis Center
08:37PM 42.1917 -96.1956 269° West 422 486 36,000  Level Minneapolis Center
08:38PM 42.1903 -96.3844 269° West 422 486 36,000  Level Minneapolis Center
08:39PM 42.1883 -96.5717 269° West 420 483 36,000  Level Minneapolis Center
08:40PM 42.1861 -96.7289 269° West 421 484 36,000  Level Minneapolis Center
08:41PM 42.1839 -96.8878 269° West 423 487 36,000  Level Minneapolis Center
08:42PM 42.1806 -97.0456 268° West 425 489 36,000  Level Minneapolis Center
08:43PM 42.1786 -97.2042 269° West 425 489 36,000  Level Minneapolis Center
08:44PM 42.1758 -97.3619 269° West 423 487 36,000  Level Minneapolis Center
08:45PM 42.1725 -97.5203 268° West 424 488 36,000  Level Minneapolis Center
08:46PM 42.1692 -97.6797 268° West 425 489 36,000  Level Minneapolis Center
08:47PM 42.1650 -97.8675 268° West 426 490 36,000  Level Minneapolis Center
08:48PM 42.1608 -98.0272 268° West 428 493 36,000  Level Minneapolis Center
08:49PM 42.1569 -98.1875 268° West 429 494 36,000  Level Minneapolis Center
08:50PM 42.1517 -98.3794 268° West 430 495 36,000  Level Minneapolis Center
08:51PM 42.1461 -98.5389 267° West 428 493 36,000  Level Minneapolis Center
08:52PM 42.1414 -98.6969 268° West 428 493 36,000  Level Denver Center
08:53PM 42.1364 -98.8564 268° West 428 493 36,000  Level Denver Center
08:54PM 42.1319 -99.0169 268° West 429 494 36,000  Level Minneapolis Center
08:55PM 42.1256 -99.2106 268° West 431 496 36,000 120 Level Minneapolis Center
08:56PM 42.1197 -99.3381 267° West 430 495 36,300 720 Climbing Denver Center
08:57PM 42.1131 -99.5261 267° West 421 484 37,500 1,020 Climbing Denver Center
08:58PM 42.1067 -99.6792 267° West 411 473 38,500 720 Climbing Denver Center
08:59PM 42.1011 -99.8219 267° West 398 458 39,100 540 Climbing Denver Center
09:00PM 42.0944 -99.9894 267° West 400 460 39,700 420 Climbing Denver Center
09:02PM 42.0886 -100.1306 267° West 399 459 40,000 120 Climbing Denver Center
09:03PM 42.0808 -100.2989 266° West 404 465 40,000  Level Denver Center
09:04PM 42.0756 -100.4469 267° West 413 475 40,000  Level Denver Center
09:05PM 42.0664 -100.6247 266° West 424 488 40,000  Level Denver Center
09:06PM 42.0583 -100.7756 266° West 424 488 40,000  Level Denver Center
09:07PM 42.0522 -100.9250 267° West 421 484 40,000  Level Denver Center
09:08PM 42.0431 -101.1017 266° West 425 489 40,000  Level Denver Center
09:09PM 42.0342 -101.2522 266° West 424 488 40,000  Level Denver Center
09:10PM 42.0256 -101.4256 266° West 419 482 40,000  Level Denver Center
09:11PM 42.0183 -101.5744 266° West 417 480 40,000  Level Denver Center
09:12PM 42.0081 -101.7483 266° West 418 481 40,000  Level Denver Center
09:13PM 42.0000 -101.8986 266° West 422 486 40,000  Level Denver Center
09:14PM 41.9878 -102.0753 265° West 425 489 40,000  Level Denver Center
09:15PM 41.9781 -102.2428 266° West 425 489 40,000  Level Denver Center
09:16PM 41.9689 -102.3944 265° West 426 490 40,000  Level Denver Center
09:17PM 41.9586 -102.5481 265° West 430 495 40,000  Level Denver Center
09:18PM 41.9458 -102.7253 265° West 426 490 40,000  Level Denver Center
09:19PM 41.9369 -102.8767 266° West 424 488 40,000  Level Denver Center
09:20PM 41.9231 -103.0553 264° West 430 495 40,000  Level Denver Center
09:21PM 41.9136 -103.2061 265° West 426 490 40,000  Level Denver Center
09:22PM 41.9006 -103.3814 264° West 422 486 40,000  Level Denver Center
09:23PM 41.8908 -103.5325 265° West 425 489 40,000  Level Denver Center
09:24PM 41.8869 -103.7103 268° West 428 493 40,000  Level Denver Center
09:25PM 41.8811 -103.8600 267° West 422 486 40,000  Level Denver Center
09:26PM 41.8744 -104.0644 268° West 426 490 40,000  Level Denver Center
09:28PM 41.8686 -104.2175 267° West 428 493 40,000  Level Denver Center
09:29PM 41.8614 -104.3967 267° West 429 494 40,000  Level Denver Center
09:30PM 41.8561 -104.5506 267° West 430 495 40,000  Level Denver Center
09:31PM 41.8481 -104.7286 267° West 428 493 40,000  Level Denver Center
09:32PM 41.8422 -104.8822 267° West 429 494 40,000  Level Denver Center
09:33PM 41.8350 -105.0361 266° West 430 495 40,000  Level Denver Center
09:34PM 41.8278 -105.2122 267° West 425 489 40,000  Level Denver Center
09:35PM 41.8206 -105.3592 266° West 417 480 40,000  Level Denver Center
09:36PM 41.8114 -105.5342 266° West 418 481 40,000  Level Denver Center
09:37PM 41.8050 -105.6872 267° West 426 490 40,000  Level Denver Center
09:38PM 41.7933 -105.8644 265° West 427 491 40,000  Level Denver Center
09:39PM 41.7878 -106.0183 267° West 429 494 40,000  Level Denver Center
09:40PM 41.7797 -106.1686 266° West 424 488 40,000  Level Denver Center
09:41PM 41.7711 -106.3436 266° West 423 487 40,000  Level Denver Center
09:42PM 41.7589 -106.5267 265° West 424 488 40,000  Level Denver Center
09:43PM 41.7489 -106.7053 266° West 431 496 40,000  Level Denver Center
09:44PM 41.7392 -106.8589 265° West 435 501 40,000  Level Denver Center
09:45PM 41.7294 -107.0394 266° West 435 501 40,000  Level Denver Center
09:46PM 41.7197 -107.1950 265° West 438 504 40,000  Level Denver Center
09:47PM 41.7092 -107.3753 266° West 435 501 40,000  Level Denver Center
09:48PM 41.6997 -107.5058 265° West 437 503 40,000  Level Salt Lake Center
09:49PM 41.6883 -107.6858 265° West 436 502 40,000  Level Salt Lake Center
09:50PM 41.6775 -107.8386 265° West 430 495 40,000  Level Salt Lake Center
09:51PM 41.6653 -108.0136 265° West 425 489 40,000  Level Salt Lake Center
09:52PM 41.6514 -108.1867 264° West 424 488 40,000  Level Denver Center
09:54PM 41.6369 -108.3367 263° West 425 489 40,000  Level Denver Center
09:55PM 41.6189 -108.5131 262° West 429 494 40,000  Level Denver Center
09:55PM 41.6058 -108.6397 262° West 429 494 40,000  Level Salt Lake Center
09:56PM 41.5878 -108.8178 262° West 433 498 40,000  Level Salt Lake Center
09:57PM 41.5717 -108.9708 262° West 438 504 40,000  Level Salt Lake Center
09:59PM 41.5531 -109.1492 262° West 445 512 40,000  Level Salt Lake Center
10:00PM 41.5358 -109.3025 262° West 445 512 40,000  Level Salt Lake Center
10:01PM 41.5150 -109.4803 261° West 439 505 40,000  Level Salt Lake Center
10:02PM 41.4975 -109.6322 261° West 436 502 40,000  Level Salt Lake Center
10:03PM 41.4772 -109.8092 261° West 435 501 40,000  Level Salt Lake Center
10:04PM 41.4600 -109.9611 261° West 434 499 40,000  Level Salt Lake Center
10:05PM 41.4400 -110.1353 261° West 429 494 40,000  Level Salt Lake Center
10:06PM 41.4222 -110.2867 261° West 430 495 40,000  Level Salt Lake Center
10:07PM 41.4033 -110.4372 261° West 431 496 40,000  Level Salt Lake Center
10:08PM 41.3828 -110.6108 261° West 427 491 40,000  Level Salt Lake Center
10:09PM 41.3653 -110.7589 261° West 425 489 40,000  Level Salt Lake Center
10:10PM 41.3442 -110.9328 261° West 426 490 40,000  Level Salt Lake Center
10:11PM 41.3261 -111.0764 261° West 429 494 40,000  Level Salt Lake Center
10:12PM 41.3067 -111.2314 261° West 428 493 40,000  Level Salt Lake Center
10:13PM 41.2842 -111.4133 261° West 417 480 40,000  Level Salt Lake Center
10:14PM 41.2656 -111.5603 260° West 407 468 40,000  Level Salt Lake Center
10:15PM 41.2464 -111.7086 260° West 412 474 40,000  Level Salt Lake Center
10:16PM 41.2267 -111.8603 260° West 423 487 40,000  Level Salt Lake Center
10:17PM 41.2064 -112.0122 260° West 426 490 40,000  Level Salt Lake Center
10:18PM 41.1817 -112.1933 260° West 421 484 40,000  Level Salt Lake Center
10:19PM 41.1617 -112.3442 260° West 420 483 40,000  Level Salt Lake Center
10:20PM 41.1400 -112.4958 259° West 421 484 40,000  Level Salt Lake Center
10:21PM 41.1200 -112.6469 260° West 419 482 40,000  Level Salt Lake Center
10:22PM 41.0983 -112.7983 259° West 421 484 40,000  Level Salt Lake Center
10:23PM 41.0733 -112.9792 260° West 417 480 40,000  Level Salt Lake Center
10:24PM 41.0517 -113.1294 259° West 417 480 40,000  Level Salt Lake Center
10:25PM 41.0297 -113.2808 259° West 419 482 40,000  Level Salt Lake Center
10:26PM 41.0061 -113.4331 258° West 422 486 40,000  Level Salt Lake Center
10:27PM 40.9853 -113.5853 260° West 422 486 40,000  Level Salt Lake Center
10:28PM 40.9619 -113.7389 259° West 426 490 40,000  Level Salt Lake Center
10:29PM 40.9400 -113.8908 259° West 423 487 40,000  Level Salt Lake Center
10:30PM 40.9117 -114.0736 258° West 424 488 40,000  Level Salt Lake Center
10:31PM 40.8878 -114.2267 258° West 425 489 40,000  Level Salt Lake Center
10:32PM 40.8647 -114.3783 259° West 423 487 40,000  Level Salt Lake Center
10:34PM 40.8414 -114.5322 259° West 423 487 40,000  Level Salt Lake Center
10:35PM 40.8139 -114.7047 258° West 427 491 40,000  Level Salt Lake Center
10:36PM 40.7858 -114.8517 256° West 430 495 40,000  Level Salt Lake Center
10:37PM 40.7644 -114.9992 259° West 428 493 40,000  Level Salt Lake Center
10:38PM 40.7367 -115.1681 258° West 423 487 40,000  Level Salt Lake Center
10:39PM 40.7119 -115.3125 257° West 422 486 40,000  Level Salt Lake Center
10:40PM 40.6850 -115.4792 258° West 416 479 40,000  Level Salt Lake Center
10:41PM 40.6608 -115.6219 257° West 418 481 40,000  Level Salt Lake Center
10:42PM 40.6331 -115.7883 258° West 416 479 40,000  Level Salt Lake Center
10:43PM 40.6083 -115.9325 257° West 420 483 40,000  Level Salt Lake Center
10:44PM 40.5806 -116.1017 258° West 424 488 40,000  Level Salt Lake Center
10:45PM 40.5547 -116.2461 257° West 423 487 40,000  Level Salt Lake Center
10:46PM 40.5306 -116.3892 258° West 422 486 40,000  Level Salt Lake Center
10:47PM 40.5022 -116.5558 257° West 420 483 40,000  Level Salt Lake Center
10:48PM 40.4767 -116.7000 257° West 423 487 40,000  Level Salt Lake Center
10:49PM 40.4500 -116.8478 257° West 423 487 40,000  Level Salt Lake Center
10:50PM 40.4183 -117.0294 257° West 427 491 40,000  Level Salt Lake Center
10:51PM 40.3922 -117.1694 256° West 420 483 40,000  Level Salt Lake Center
10:52PM 40.3619 -117.3342 256° West 418 481 40,000  Level Salt Lake Center
10:53PM 40.3356 -117.4767 256° West 419 482 40,000  Level Salt Lake Center
10:54PM 40.3081 -117.6194 256° West 421 484 40,000  Level Salt Lake Center
10:55PM 40.2828 -117.7619 257° West 423 487 40,000  Level Oakland Center
10:56PM 40.2572 -117.9022 257° West 417 480 40,000 -420 Level Oakland Center
10:57PM 40.2258 -118.0583 255° West 403 464 39,200 -1,620 Descending Oakland Center
10:58PM 40.1989 -118.2064 257° West 414 476 36,800 -2,460 Descending Oakland Center
10:59PM 40.1700 -118.3533 256° West 418 481 34,200 -2,460 Descending Oakland Center
11:00PM 40.1422 -118.4961 256° West 410 472 31,800 -2,400 Descending Oakland Center
11:01PM 40.1144 -118.6356 255° West 399 459 29,400 -2,640 Descending Oakland Center
11:02PM 40.0822 -118.8039 256° West 399 459 26,500 -2,640 Descending Oakland Center
11:03PM 40.0550 -118.9375 255° West 387 445 24,100 -2,400 Descending Oakland Center
11:04PM 40.0303 -119.0653 256° West 369 425 21,700 -2,400 Descending Oakland Center
11:05PM 40.0058 -119.1883 255° West 354 407 19,300 -2,280 Descending Oakland Center
11:06PM 39.9825 -119.3047 255° West 337 388 17,100 -2,280 Descending Oakland Center
11:07PM 39.9611 -119.4178 256° West 326 375 14,700 -2,100 Descending Oakland Center
11:08PM 39.9425 -119.5261 257° West 313 360 12,800 -1,980 Descending Oakland Center
11:09PM 39.9203 -119.6419 256° West 283 326 10,700 -1,320 Descending Oakland Center
11:10PM 39.8950 -119.7231 248° West 253 291 10,100 -360 Descending Oakland Center
11:11PM 39.8308 -119.7581 203° Southwest 251 289 10,000 -540 Descending Oakland Center
11:12PM 39.7664 -119.7714 189° South 244 281 9,100 -660 Descending Oakland Center
11:13PM 39.7067 -119.7700 179° South 229 264 8,700 -660 Descending Oakland Center
11:14PM 39.6506 -119.7689 179° South 214 246 7,800 -1,200 Descending Oakland Center
11:16PM 39.6000 -119.7667 178° South 148 170 6,300 -1,140 Descending Northern Cal TRACON
11:17PM 39.5667 -119.7667 180° South 147 169 5,400 -840 Descending Northern Cal TRACON
11:18PM 39.5167 -119.7667 180° South 150 173 4,700 -780 Descending Northern Cal TRACON
11:20PM 39.4991 -119.7681 201° Southwest  Level Estimated